Forside
METAR-TAF:

METAR-TAF

Lufthavne :

Lusaka, Zambia

Breddekreds: 15-19-51S, længdekreds: 028-27-09E, højde: 1152 m

Aktuelle vejr

Denne rapport blev lavet for 6 timer og 6 minutter siden, kl. 10:00 UTC
Vind stille
Temperatur 26°C
Fugtighed 42%
Tryk 1020 hPa
Sigt: 9000 m
Brudte skyer i en højde af 10000 ft
Spredte skyer i en højde af 30000 ft

METAR: FLKK 161000Z 00000KT 9000 BKN100 SCT300 26/12 Q1020 NOSIG

Tid: 18:06 (16:06 UTC)


TAF: fraværende

Vejrobservationer og prognoser fra mere end 4000 lufthavne (METAR og TAF).

De gule og røde prikker repræsenterer de meteorologiske stationer.

Flyt musen over at se navnet på stationen.

Så klik over at se vejr observationer og prognoser.

At skifte det kort: Klik på de grønne knapper med et sort kors for at zoome ind; på den grønne knap med en bindestreg for at zoome ud; eller på de grønne pile for tilstødende kort.


METAR-TAF: